createdAt,value
2017-02-04T00:00:47.638Z,51.36
2017-02-04T00:01:47.667Z,51.26
2017-02-04T00:02:47.695Z,51.17
2017-02-04T00:03:47.720Z,51.46
2017-02-04T00:04:47.748Z,51.56
2017-02-04T00:05:47.381Z,51.94
2017-02-04T00:06:47.402Z,51.56
2017-02-04T00:07:47.447Z,51.84
2017-02-04T00:08:47.868Z,51.65
2017-02-04T00:09:47.883Z,51.46
2017-02-04T00:10:47.913Z,51.65
2017-02-04T00:11:47.545Z,51.65
2017-02-04T00:12:47.962Z,51.65
2017-02-04T00:13:47.850Z,51.84
2017-02-04T00:14:48.020Z,51.65
2017-02-04T00:15:47.652Z,51.65
2017-02-04T00:16:47.685Z,51.65
2017-02-04T00:17:48.102Z,51.84
2017-02-04T00:18:48.378Z,51.75
2017-02-04T00:19:48.159Z,51.56
2017-02-04T00:20:48.179Z,51.65
2017-02-04T00:21:47.816Z,51.75
2017-02-04T00:22:48.233Z,51.75
2017-02-04T00:23:48.518Z,51.56
2017-02-04T00:24:48.290Z,51.46
2017-02-04T00:25:47.922Z,51.65
2017-02-04T00:26:47.952Z,51.46
2017-02-04T00:27:48.369Z,51.75
2017-02-04T00:28:48.257Z,51.56
2017-02-04T00:29:48.035Z,51.65
2017-02-04T00:30:48.058Z,51.75
2017-02-04T00:31:48.482Z,51.65
2017-02-04T00:32:48.123Z,51.75
2017-02-04T00:33:48.788Z,51.46
2017-02-04T00:34:48.565Z,51.56
2017-02-04T00:35:48.590Z,51.75
2017-02-04T00:36:48.618Z,52.04
2017-02-04T00:37:48.642Z,51.46
2017-02-04T00:38:48.280Z,51.75
2017-02-04T00:39:48.305Z,51.84
2017-02-04T00:40:48.722Z,51.84
2017-02-04T00:41:48.358Z,51.62
2017-02-04T00:42:48.780Z,51.84
2017-02-04T00:43:48.808Z,51.75
2017-02-04T00:44:48.836Z,51.53
2017-02-04T00:45:48.464Z,51.72
2017-02-04T00:46:48.499Z,51.62
2017-02-04T00:47:48.919Z,52.3
2017-02-04T00:48:48.944Z,51.53
2017-02-04T00:49:48.573Z,51.72
2017-02-04T00:50:49.000Z,51.92
2017-02-04T00:51:48.630Z,52.2
2017-02-04T00:52:48.650Z,51.53
2017-02-04T00:53:49.079Z,51.62
2017-02-04T00:54:49.105Z,51.92
2017-02-04T00:55:48.737Z,52.04
2017-02-04T00:56:49.163Z,51.62
2017-02-04T00:57:48.786Z,51.84
2017-02-04T00:58:49.211Z,51.82
2017-02-04T00:59:49.496Z,51.75
2017-02-04T01:00:48.873Z,51.75
2017-02-04T01:01:48.902Z,51.53
2017-02-04T01:02:49.317Z,51.14
2017-02-04T01:03:49.351Z,51.72
2017-02-04T01:04:49.879Z,51.53
2017-02-04T01:05:49.404Z,51.34
2017-02-04T01:06:49.039Z,51.62
2017-02-04T01:07:49.058Z,51.43
2017-02-04T01:08:49.483Z,51.43
2017-02-04T01:09:49.511Z,51.62
2017-02-04T01:10:49.540Z,51.72
2017-02-04T01:11:49.561Z,51.53
2017-02-04T01:12:49.594Z,51.53
2017-02-04T01:13:49.618Z,51.43
2017-02-04T01:14:49.650Z,51.43
2017-02-04T01:15:49.679Z,51.72
2017-02-04T01:16:49.304Z,51.72
2017-02-04T01:17:49.729Z,51.72
2017-02-04T01:18:49.362Z,51.53
2017-02-04T01:19:49.782Z,51.62
2017-02-04T01:20:49.416Z,51.72
2017-02-04T01:21:49.837Z,51.43
2017-02-04T01:22:49.864Z,51.53
2017-02-04T01:23:49.892Z,51.62
2017-02-04T01:24:49.922Z,51.43
2017-02-04T01:25:49.946Z,51.53
2017-02-04T01:26:49.576Z,51.43
2017-02-04T01:27:49.601Z,51.53
2017-02-04T01:28:49.629Z,51.62
2017-02-04T01:29:50.054Z,51.53
2017-02-04T01:30:50.078Z,51.53
2017-02-04T01:31:49.712Z,51.72
2017-02-04T01:32:49.740Z,51.72
2017-02-04T01:33:49.759Z,51.53
2017-02-04T01:34:50.186Z,51.53
2017-02-04T01:35:50.215Z,51.62
2017-02-04T01:36:50.244Z,51.72
2017-02-04T01:37:50.268Z,51.92
2017-02-04T01:38:50.302Z,51.82
2017-02-04T01:39:49.925Z,51.92
2017-02-04T01:40:50.206Z,51.82
2017-02-04T01:41:50.375Z,51.34
2017-02-04T01:42:50.404Z,50.85
2017-02-04T01:43:50.037Z,50.95
2017-02-04T01:44:50.461Z,51.24
2017-02-04T01:45:50.342Z,51.14
2017-02-04T01:46:50.515Z,51.24
2017-02-04T01:47:50.146Z,51.05
2017-02-04T01:48:50.562Z,51.34
2017-02-04T01:49:50.590Z,51.24
2017-02-04T01:50:50.873Z,51.05
2017-02-04T01:51:50.251Z,51.43
2017-02-04T01:52:50.274Z,51.34
2017-02-04T01:53:50.701Z,51.34
2017-02-04T01:54:50.729Z,51.14
2017-02-04T01:55:51.006Z,51.05
2017-02-04T01:56:50.783Z,50.95
2017-02-04T01:57:50.411Z,51.05
2017-02-04T01:58:50.836Z,51.05
2017-02-04T01:59:50.856Z,51.14
2017-02-04T02:00:51.394Z,51.34
2017-02-04T02:01:50.918Z,51.24
2017-02-04T02:02:50.943Z,51.34
2017-02-04T02:03:50.972Z,51.43
2017-02-04T02:04:51.000Z,51.34
2017-02-04T02:05:51.277Z,50.66
2017-02-04T02:06:50.654Z,50.76
2017-02-04T02:07:51.079Z,50.76
2017-02-04T02:08:51.108Z,50.85
2017-02-04T02:09:50.736Z,50.76
2017-02-04T02:10:51.408Z,50.66
2017-02-04T02:11:51.189Z,50.66
2017-02-04T02:12:50.819Z,50.66
2017-02-04T02:13:51.240Z,50.85
2017-02-04T02:14:51.265Z,50.95
2017-02-04T02:15:51.544Z,51.05
2017-02-04T02:16:51.322Z,50.95
2017-02-04T02:17:51.347Z,51.05
2017-02-04T02:18:51.373Z,50.85
2017-02-04T02:19:51.399Z,50.85
2017-02-04T02:20:51.430Z,51.05
2017-02-04T02:21:51.057Z,50.95
2017-02-04T02:22:51.094Z,50.95
2017-02-04T02:23:51.511Z,50.85
2017-02-04T02:24:51.141Z,50.83
2017-02-04T02:25:51.565Z,50.85
2017-02-04T02:26:51.590Z,50.27
2017-02-04T02:27:51.626Z,50.85
2017-02-04T02:28:51.247Z,50.66
2017-02-04T02:29:51.667Z,50.57
2017-02-04T02:30:51.297Z,50.47
2017-02-04T02:31:51.725Z,50.35
2017-02-04T02:32:51.760Z,50.37
2017-02-04T02:33:51.382Z,50.09
2017-02-04T02:34:51.808Z,50.09
2017-02-04T02:35:51.836Z,50.06
2017-02-04T02:36:51.856Z,50.09
2017-02-04T02:37:51.490Z,50.18
2017-02-04T02:38:51.911Z,50.09
2017-02-04T02:39:51.934Z,50.18
2017-02-04T02:40:51.567Z,50.18
2017-02-04T02:41:52.240Z,50.18
2017-02-04T02:42:51.625Z,50.18
2017-02-04T02:43:51.650Z,50.27
2017-02-04T02:44:51.679Z,50.18
2017-02-04T02:45:52.100Z,50.27
2017-02-04T02:46:52.382Z,50.09
2017-02-04T02:47:52.153Z,50.37
2017-02-04T02:48:52.188Z,50.57
2017-02-04T02:49:51.815Z,50.35
2017-02-04T02:50:52.238Z,50.47
2017-02-04T02:51:52.125Z,50.18
2017-02-04T02:52:52.323Z,50.27
2017-02-04T02:53:52.314Z,50.54
2017-02-04T02:54:51.947Z,50.63
2017-02-04T02:55:52.370Z,50.35
2017-02-04T02:56:52.251Z,50.45
2017-02-04T02:57:52.424Z,50.15
2017-02-04T02:58:52.453Z,49.96
2017-02-04T02:59:52.478Z,50.25
2017-02-04T03:00:52.106Z,49.96
2017-02-04T03:01:52.386Z,50.63
2017-02-04T03:02:52.163Z,50.09
2017-02-04T03:03:52.189Z,50.06
2017-02-04T03:04:52.613Z,49.96
2017-02-04T03:05:52.246Z,50.06
2017-02-04T03:06:52.911Z,49.96
2017-02-04T03:07:52.687Z,50.06
2017-02-04T03:08:52.320Z,49.96
2017-02-04T03:09:52.344Z,50.15
2017-02-04T03:10:52.375Z,49.87
2017-02-04T03:11:52.402Z,49.87
2017-02-04T03:12:52.422Z,50.06
2017-02-04T03:13:52.851Z,50.25
2017-02-04T03:14:52.479Z,50.06
2017-02-04T03:15:52.905Z,49.77
2017-02-04T03:16:52.933Z,49.77
2017-02-04T03:17:52.559Z,50.15
2017-02-04T03:18:52.987Z,50.06
2017-02-04T03:19:52.616Z,49.96
2017-02-04T03:20:53.045Z,50.45
2017-02-04T03:21:53.065Z,49.87
2017-02-04T03:22:52.697Z,49.87
2017-02-04T03:23:53.114Z,50.06
2017-02-04T03:24:53.152Z,49.87
2017-02-04T03:25:53.179Z,49.87
2017-02-04T03:26:52.805Z,49.77
2017-02-04T03:27:53.082Z,49.87
2017-02-04T03:28:53.255Z,49.87
2017-02-04T03:29:53.284Z,49.87
2017-02-04T03:30:53.308Z,49.87
2017-02-04T03:31:53.333Z,49.96
2017-02-04T03:32:53.621Z,49.96
2017-02-04T03:33:52.989Z,49.77
2017-02-04T03:34:53.415Z,50.15
2017-02-04T03:35:53.044Z,49.58
2017-02-04T03:36:53.072Z,49.58
2017-02-04T03:37:53.749Z,49.48
2017-02-04T03:38:53.523Z,49.58
2017-02-04T03:39:53.547Z,49.38
2017-02-04T03:40:53.575Z,49.29
2017-02-04T03:41:53.601Z,49.58
2017-02-04T03:42:54.133Z,49.29
2017-02-04T03:43:53.653Z,49.19
2017-02-04T03:44:53.286Z,49
2017-02-04T03:45:53.315Z,49.68
2017-02-04T03:46:53.340Z,49.48
2017-02-04T03:47:53.765Z,49.68
2017-02-04T03:48:53.780Z,49.29
2017-02-04T03:49:53.818Z,49.68
2017-02-04T03:50:53.843Z,49.29
2017-02-04T03:51:53.471Z,49.29
2017-02-04T03:52:53.931Z,49.58
2017-02-04T03:53:53.924Z,49.1
2017-02-04T03:54:53.554Z,49.1
2017-02-04T03:55:53.973Z,49.1
2017-02-04T03:56:53.604Z,48.81
2017-02-04T03:57:53.633Z,49.29
2017-02-04T03:58:54.057Z,48.9
2017-02-04T03:59:53.686Z,49.19
2017-02-04T04:00:54.110Z,49.19
2017-02-04T04:01:53.743Z,49
2017-02-04T04:02:54.164Z,49.1
2017-02-04T04:03:53.793Z,48.81
2017-02-04T04:04:54.213Z,49
2017-02-04T04:05:53.846Z,48.81
2017-02-04T04:06:54.271Z,49.1
2017-02-04T04:07:54.296Z,49.1
2017-02-04T04:08:53.928Z,48.81
2017-02-04T04:09:54.345Z,49
2017-02-04T04:10:54.369Z,49
2017-02-04T04:11:54.042Z,49.29
2017-02-04T04:12:54.036Z,49.19
2017-02-04T04:13:54.461Z,49.19
2017-02-04T04:14:54.479Z,49.1
2017-02-04T04:15:54.114Z,49.19
2017-02-04T04:16:54.529Z,48.81
2017-02-04T04:17:54.559Z,49
2017-02-04T04:18:54.587Z,49
2017-02-04T04:19:54.618Z,48.9
2017-02-04T04:20:54.641Z,49
2017-02-04T04:21:54.667Z,49.1
2017-02-04T04:22:54.694Z,49
2017-02-04T04:23:54.584Z,48.81
2017-02-04T04:24:54.748Z,48.81
2017-02-04T04:25:54.777Z,48.71
2017-02-04T04:26:54.404Z,48.61
2017-02-04T04:27:54.831Z,49.1
2017-02-04T04:28:55.105Z,49
2017-02-04T04:29:54.883Z,48.61
2017-02-04T04:30:54.904Z,48.81
2017-02-04T04:31:54.541Z,48.52
2017-02-04T04:32:54.963Z,48.43
2017-02-04T04:33:55.239Z,48.61
2017-02-04T04:34:54.619Z,48.52
2017-02-04T04:35:55.041Z,48.52
2017-02-04T04:36:55.070Z,48.61
2017-02-04T04:37:54.702Z,48.81
2017-02-04T04:38:55.623Z,48.9
2017-02-04T04:39:54.751Z,48.81
2017-02-04T04:40:54.780Z,48.71
2017-02-04T04:41:55.201Z,48.43
2017-02-04T04:42:55.230Z,48.43
2017-02-04T04:43:55.505Z,48.43
2017-02-04T04:44:55.283Z,48.52
2017-02-04T04:45:54.912Z,48.52
2017-02-04T04:46:55.335Z,48.52
2017-02-04T04:47:55.367Z,48.33
2017-02-04T04:48:55.643Z,48.52
2017-02-04T04:49:55.018Z,48.43
2017-02-04T04:50:55.047Z,48.43
2017-02-04T04:51:55.463Z,48.33
2017-02-04T04:52:55.495Z,48.52
2017-02-04T04:53:55.776Z,48.33
2017-02-04T04:54:55.550Z,48.23
2017-02-04T04:55:55.179Z,48.33
2017-02-04T04:56:55.203Z,48.52
2017-02-04T04:57:55.628Z,48.52
2017-02-04T04:58:55.656Z,48.23
2017-02-04T04:59:55.681Z,48.71
2017-02-04T05:00:55.711Z,48.23
2017-02-04T05:01:55.343Z,48.03
2017-02-04T05:02:55.368Z,48.43
2017-02-04T05:03:55.789Z,48.23
2017-02-04T05:04:55.810Z,48.23
2017-02-04T05:05:55.838Z,48.13
2017-02-04T05:06:55.867Z,48.33
2017-02-04T05:07:55.505Z,48.23
2017-02-04T05:08:55.924Z,47.85
2017-02-04T05:09:55.949Z,47.94
2017-02-04T05:10:55.973Z,47.65
2017-02-04T05:11:56.019Z,47.65
2017-02-04T05:12:56.023Z,47.94
2017-02-04T05:13:56.055Z,47.75
2017-02-04T05:14:56.080Z,47.94
2017-02-04T05:15:56.129Z,47.75
2017-02-04T05:16:55.737Z,48.33
2017-02-04T05:17:56.162Z,47.94
2017-02-04T05:18:56.188Z,48.03
2017-02-04T05:19:56.248Z,48.13
2017-02-04T05:20:56.241Z,47.85
2017-02-04T05:21:56.285Z,47.46
2017-02-04T05:22:55.894Z,47.85
2017-02-04T05:23:56.335Z,47.75
2017-02-04T05:24:55.951Z,47.46
2017-02-04T05:25:55.976Z,47.56
2017-02-04T05:26:56.001Z,47.56
2017-02-04T05:27:56.450Z,47.46
2017-02-04T05:28:56.459Z,47.36
2017-02-04T05:29:56.732Z,47.56
2017-02-04T05:30:56.110Z,47.65
2017-02-04T05:31:56.557Z,47.65
2017-02-04T05:32:56.166Z,47.46
2017-02-04T05:33:56.204Z,47.17
2017-02-04T05:34:56.859Z,47.27
2017-02-04T05:35:56.656Z,47.27
2017-02-04T05:36:56.670Z,47.27
2017-02-04T05:37:56.710Z,47.46
2017-02-04T05:38:56.710Z,47.46
2017-02-04T05:39:56.993Z,47.65
2017-02-04T05:40:56.772Z,47.17
2017-02-04T05:41:56.817Z,47.65
2017-02-04T05:42:56.825Z,47.56
2017-02-04T05:43:56.878Z,47.65
2017-02-04T05:44:56.981Z,46.98
2017-02-04T05:45:56.924Z,47.56
2017-02-04T05:46:56.536Z,47.56
2017-02-04T05:47:56.585Z,47.17
2017-02-04T05:48:56.589Z,46.88
2017-02-04T05:49:57.262Z,47.17
2017-02-04T05:50:56.638Z,47.17
2017-02-04T05:51:57.097Z,47.17
2017-02-04T05:52:56.697Z,47.17
2017-02-04T05:53:56.738Z,47.17
2017-02-04T05:54:57.398Z,47.17
2017-02-04T05:55:56.815Z,47.36
2017-02-04T05:56:56.804Z,47.46
2017-02-04T05:57:57.254Z,47.39
2017-02-04T05:58:57.257Z,46.98
2017-02-04T05:59:57.553Z,46.91
2017-02-04T06:00:57.306Z,46.91
2017-02-04T06:01:56.951Z,47
2017-02-04T06:02:57.360Z,47.1
2017-02-04T06:03:57.389Z,47
2017-02-04T06:04:57.414Z,47.39
2017-02-04T06:05:57.438Z,46.71
2017-02-04T06:06:57.467Z,47.19
2017-02-04T06:07:57.096Z,46.91
2017-02-04T06:08:57.525Z,46.91
2017-02-04T06:09:57.561Z,46.62
2017-02-04T06:10:57.174Z,46.33
2017-02-04T06:11:57.207Z,46.23
2017-02-04T06:12:57.627Z,46.91
2017-02-04T06:13:57.652Z,46.52
2017-02-04T06:14:57.293Z,46.42
2017-02-04T06:15:57.334Z,46.42
2017-02-04T06:16:57.336Z,46.23
2017-02-04T06:17:57.360Z,46.33
2017-02-04T06:18:57.788Z,46.33
2017-02-04T06:19:57.436Z,46.23
2017-02-04T06:20:57.440Z,46.42
2017-02-04T06:21:57.866Z,46.33
2017-02-04T06:22:57.896Z,46.33
2017-02-04T06:23:57.939Z,46.33
2017-02-04T06:24:57.948Z,46.62
2017-02-04T06:25:57.993Z,46.62
2017-02-04T06:26:57.606Z,46.33
2017-02-04T06:27:57.662Z,46.33
2017-02-04T06:28:57.656Z,46.62
2017-02-04T06:29:58.103Z,46.14
2017-02-04T06:30:58.361Z,46.33
2017-02-04T06:31:57.747Z,46.35
2017-02-04T06:32:57.762Z,46.23
2017-02-04T06:33:58.210Z,46.14
2017-02-04T06:34:58.216Z,46.33
2017-02-04T06:35:58.100Z,46.42
2017-02-04T06:36:58.269Z,45.84
2017-02-04T06:37:57.903Z,46.04
2017-02-04T06:38:58.323Z,46.06
2017-02-04T06:39:58.352Z,45.87
2017-02-04T06:40:58.628Z,45.97
2017-02-04T06:41:58.409Z,45.97
2017-02-04T06:42:58.438Z,45.68
2017-02-04T06:43:58.478Z,46.15
2017-02-04T06:44:58.087Z,45.97
2017-02-04T06:45:58.764Z,45.97
2017-02-04T06:46:58.140Z,45.48
2017-02-04T06:47:58.186Z,46.35
2017-02-04T06:48:58.595Z,45.48
2017-02-04T06:49:58.639Z,45.48
2017-02-04T06:50:59.150Z,45.77
2017-02-04T06:51:58.688Z,45.48
2017-02-04T06:52:58.697Z,45.87
2017-02-04T06:53:58.342Z,45.87
2017-02-04T06:54:58.757Z,45.77
2017-02-04T06:55:58.782Z,45.77
2017-02-04T06:56:58.412Z,45.97
2017-02-04T06:57:58.864Z,45.87
2017-02-04T06:58:58.466Z,45.68
2017-02-04T06:59:58.890Z,45.87
2017-02-04T07:00:58.915Z,45.87
2017-02-04T07:01:58.944Z,45.87
2017-02-04T07:02:58.967Z,45.48
2017-02-04T07:03:58.596Z,45.87
2017-02-04T07:04:59.021Z,45.97
2017-02-04T07:05:58.678Z,45.39
2017-02-04T07:06:58.682Z,45.1
2017-02-04T07:07:58.732Z,45.39
2017-02-04T07:08:58.740Z,45.2
2017-02-04T07:09:58.769Z,45.2
2017-02-04T07:10:58.791Z,45.2
2017-02-04T07:11:59.214Z,45.1
2017-02-04T07:12:58.839Z,45.1
2017-02-04T07:13:58.884Z,45.29
2017-02-04T07:14:59.293Z,45.29
2017-02-04T07:15:59.325Z,45.2
2017-02-04T07:16:59.346Z,45.29
2017-02-04T07:17:58.974Z,45.27
2017-02-04T07:18:59.400Z,45.2
2017-02-04T07:19:59.439Z,45
2017-02-04T07:20:59.056Z,45.2
2017-02-04T07:21:59.493Z,45.29
2017-02-04T07:22:59.512Z,45.29
2017-02-04T07:23:59.531Z,45.29
2017-02-04T07:24:59.167Z,45.2
2017-02-04T07:25:59.192Z,45
2017-02-04T07:26:59.869Z,45.29
2017-02-04T07:27:59.258Z,45.39
2017-02-04T07:28:59.667Z,45.29
2017-02-04T07:29:59.716Z,45.2
2017-02-04T07:30:59.325Z,45.39
2017-02-04T07:32:00.021Z,45.48
2017-02-04T07:32:59.778Z,45.2
2017-02-04T07:33:59.806Z,45.48
2017-02-04T07:34:59.835Z,45.48
2017-02-04T07:35:59.860Z,45.58
2017-02-04T07:37:00.136Z,45.39
2017-02-04T07:37:59.913Z,45.48
2017-02-04T07:38:59.945Z,45.58
2017-02-04T07:39:59.571Z,45.29
2017-02-04T07:40:59.994Z,45.29
2017-02-04T07:41:59.877Z,45.58
2017-02-04T07:42:59.653Z,45.2
2017-02-04T07:44:00.073Z,45
2017-02-04T07:44:59.706Z,45.29
2017-02-04T07:45:59.735Z,45.29
2017-02-04T07:47:00.404Z,45.1
2017-02-04T07:47:59.788Z,45.2
2017-02-04T07:49:00.217Z,45.29
2017-02-04T07:50:00.234Z,45.29
2017-02-04T07:51:00.271Z,45.29
2017-02-04T07:52:00.539Z,45.2
2017-02-04T07:53:00.322Z,45.29
2017-02-04T07:54:00.344Z,45.2
2017-02-04T07:54:59.978Z,45.2
2017-02-04T07:56:00.401Z,45.29
2017-02-04T07:57:00.278Z,45.2
2017-02-04T07:58:00.063Z,45.2
2017-02-04T07:59:00.472Z,45.2
2017-02-04T08:00:00.105Z,45.2
2017-02-04T08:01:00.135Z,45.2
2017-02-04T08:02:00.813Z,45.2
2017-02-04T08:03:00.192Z,45.1
2017-02-04T08:04:00.625Z,45.17
2017-02-04T08:05:00.645Z,45.2
2017-02-04T08:06:00.678Z,45.07
2017-02-04T08:07:00.553Z,44.98
2017-02-04T08:08:00.727Z,45.2
2017-02-04T08:09:00.753Z,45.2
2017-02-04T08:10:00.780Z,45
2017-02-04T08:11:00.805Z,45.29
2017-02-04T08:12:00.437Z,45.1
2017-02-04T08:13:00.859Z,45.1
2017-02-04T08:14:00.887Z,45.29
2017-02-04T08:15:00.916Z,45.2
2017-02-04T08:16:00.543Z,44.9
2017-02-04T08:17:00.574Z,44.98
2017-02-04T08:18:00.997Z,45.17
2017-02-04T08:19:00.626Z,45.2
2017-02-04T08:20:00.646Z,44.9
2017-02-04T08:21:00.680Z,44.9
2017-02-04T08:22:00.708Z,44.98
2017-02-04T08:23:00.732Z,44.69
2017-02-04T08:24:01.154Z,45.07
2017-02-04T08:25:01.188Z,44.71
2017-02-04T08:26:00.827Z,45.07
2017-02-04T08:27:00.840Z,45.07
2017-02-04T08:28:01.264Z,44.79
2017-02-04T08:29:01.294Z,44.21
2017-02-04T08:30:01.321Z,44.59
2017-02-04T08:31:00.950Z,44.21
2017-02-04T08:32:00.976Z,44.69
2017-02-04T08:33:01.401Z,44.69
2017-02-04T08:34:01.424Z,44.71
2017-02-04T08:35:01.054Z,44.49
2017-02-04T08:36:01.086Z,44.49
2017-02-04T08:37:01.508Z,44.4
2017-02-04T08:38:01.836Z,44.9
2017-02-04T08:39:01.165Z,44.81
2017-02-04T08:40:01.190Z,44.71
2017-02-04T08:41:01.614Z,44.89
2017-02-04T08:42:01.247Z,44.79
2017-02-04T08:43:01.924Z,44.81
2017-02-04T08:44:01.693Z,44.59
2017-02-04T08:45:01.724Z,44.4
2017-02-04T08:46:01.350Z,45.17
2017-02-04T08:47:01.775Z,45.27
2017-02-04T08:48:02.055Z,45.27
2017-02-04T08:49:01.437Z,45.46
2017-02-04T08:50:01.465Z,45.56
2017-02-04T08:51:01.489Z,45.17
2017-02-04T08:52:01.527Z,45.56
2017-02-04T08:53:02.240Z,45.27
2017-02-04T08:54:01.963Z,45.27
2017-02-04T08:55:02.002Z,45.46
2017-02-04T08:56:01.625Z,45.27
2017-02-04T08:57:02.049Z,45.36
2017-02-04T08:58:02.227Z,45.17
2017-02-04T08:59:02.106Z,45.27
2017-02-04T09:00:02.128Z,45.27
2017-02-04T09:01:01.763Z,45.17
2017-02-04T09:02:02.187Z,45.75
2017-02-04T09:03:02.461Z,45.75
2017-02-04T09:04:02.243Z,45.46
2017-02-04T09:05:02.267Z,45.46
2017-02-04T09:06:01.892Z,45.46
2017-02-04T09:07:01.921Z,45.65
2017-02-04T09:08:02.596Z,45.56
2017-02-04T09:09:02.374Z,45.75
2017-02-04T09:10:02.395Z,45.56
2017-02-04T09:11:02.420Z,45.75
2017-02-04T09:12:02.057Z,45.75
2017-02-04T09:13:02.384Z,45.84
2017-02-04T09:14:02.113Z,45.56
2017-02-04T09:15:02.534Z,45.46
2017-02-04T09:16:02.559Z,45.65
2017-02-04T09:17:02.588Z,45.07
2017-02-04T09:18:02.620Z,45.17
2017-02-04T09:19:02.245Z,45.56
2017-02-04T09:20:02.668Z,45.36
2017-02-04T09:21:02.699Z,45.17
2017-02-04T09:22:02.732Z,45.27
2017-02-04T09:23:02.748Z,45.36
2017-02-04T09:24:02.773Z,45.27
2017-02-04T09:25:02.801Z,45.36
2017-02-04T09:26:02.830Z,45.07
2017-02-04T09:27:02.467Z,45.27
2017-02-04T09:28:02.492Z,45.07
2017-02-04T09:29:02.517Z,44.69
2017-02-04T09:30:02.544Z,44.59
2017-02-04T09:31:02.569Z,44.79
2017-02-04T09:32:02.602Z,44.4
2017-02-04T09:33:02.624Z,44.69
2017-02-04T09:34:03.335Z,44.4
2017-02-04T09:35:03.076Z,44.79
2017-02-04T09:36:02.701Z,44.49
2017-02-04T09:37:02.730Z,44.69
2017-02-04T09:38:02.763Z,44.49
2017-02-04T09:39:03.039Z,44.31
2017-02-04T09:40:03.211Z,44.89
2017-02-04T09:41:03.237Z,44.79
2017-02-04T09:42:03.269Z,44.69
2017-02-04T09:43:02.890Z,44.21
2017-02-04T09:44:03.168Z,45.17
2017-02-04T09:45:03.347Z,44.98
2017-02-04T09:46:03.374Z,45.27
2017-02-04T09:47:03.001Z,45.56
2017-02-04T09:48:03.034Z,45.17
2017-02-04T09:49:03.457Z,45.27
2017-02-04T09:50:03.480Z,45.07
2017-02-04T09:51:03.557Z,45.07
2017-02-04T09:52:03.533Z,45.07
2017-02-04T09:53:03.172Z,45.07
2017-02-04T09:54:03.591Z,44.69
2017-02-04T09:55:03.222Z,44.79
2017-02-04T09:56:03.248Z,44.79
2017-02-04T09:57:03.272Z,44.49
2017-02-04T09:58:03.302Z,44.59
2017-02-04T09:59:03.724Z,44.59
2017-02-04T10:00:04.047Z,44.4
2017-02-04T10:01:03.776Z,44.89
2017-02-04T10:02:03.805Z,44.89
2017-02-04T10:03:03.829Z,44.79
2017-02-04T10:04:03.857Z,44.69
2017-02-04T10:05:04.135Z,44.79
2017-02-04T10:06:03.517Z,44.79
2017-02-04T10:07:03.544Z,44.89
2017-02-04T10:08:03.951Z,44.69
2017-02-04T10:09:03.991Z,44.79
2017-02-04T10:10:03.865Z,44.79
2017-02-04T10:11:03.641Z,44.79
2017-02-04T10:12:04.064Z,44.79
2017-02-04T10:13:04.118Z,44.69
2017-02-04T10:14:03.726Z,44.79
2017-02-04T10:15:04.406Z,44.69
2017-02-04T10:16:04.183Z,44.49
2017-02-04T10:17:04.212Z,44.4
2017-02-04T10:18:04.233Z,44.4
2017-02-04T10:19:04.264Z,44.21
2017-02-04T10:20:04.547Z,44.21
2017-02-04T10:21:04.316Z,44.21
2017-02-04T10:22:04.343Z,44.21
2017-02-04T10:23:04.368Z,44.11
2017-02-04T10:24:04.001Z,44.11
2017-02-04T10:25:04.717Z,44.31
2017-02-04T10:26:04.455Z,44.31
2017-02-04T10:27:04.485Z,44.31
2017-02-04T10:28:04.109Z,44.11
2017-02-04T10:29:04.142Z,43.92
2017-02-04T10:30:04.811Z,43.92
2017-02-04T10:31:04.581Z,44.21
2017-02-04T10:32:04.617Z,44.31
2017-02-04T10:33:04.643Z,44.11
2017-02-04T10:34:04.265Z,44.11
2017-02-04T10:35:04.994Z,44.4
2017-02-04T10:36:04.719Z,44.02
2017-02-04T10:37:04.744Z,44.4
2017-02-04T10:38:04.777Z,44.21
2017-02-04T10:39:04.402Z,44.49
2017-02-04T10:40:04.826Z,44.69
2017-02-04T10:41:04.859Z,44.21
2017-02-04T10:42:04.880Z,45.27
2017-02-04T10:43:04.908Z,45.07
2017-02-04T10:44:04.934Z,44.98
2017-02-04T10:45:04.566Z,45.07
2017-02-04T10:46:04.995Z,45.07
2017-02-04T10:47:04.619Z,45.27
2017-02-04T10:48:04.648Z,45.46
2017-02-04T10:49:05.064Z,45.56
2017-02-04T10:50:05.095Z,45.17
2017-02-04T10:51:05.123Z,45.07
2017-02-04T10:52:05.156Z,45.07
2017-02-04T10:53:05.176Z,45.07
2017-02-04T10:54:04.809Z,45.27
2017-02-04T10:55:05.230Z,45.46
2017-02-04T10:56:05.259Z,45.07
2017-02-04T10:57:04.887Z,45.56
2017-02-04T10:58:05.315Z,45.17
2017-02-04T10:59:04.948Z,45.36
2017-02-04T11:00:05.373Z,45.56
2017-02-04T11:01:05.395Z,45.46
2017-02-04T11:02:05.418Z,45.27
2017-02-04T11:03:05.051Z,44.98
2017-02-04T11:04:05.471Z,45.07
2017-02-04T11:05:05.491Z,45.27
2017-02-04T11:06:05.521Z,45.17
2017-02-04T11:07:05.555Z,44.89
2017-02-04T11:08:05.579Z,45.46
2017-02-04T11:09:05.609Z,45.07
2017-02-04T11:10:05.233Z,45.27
2017-02-04T11:11:05.660Z,45.07
2017-02-04T11:12:05.290Z,45.17
2017-02-04T11:13:05.715Z,45.17
2017-02-04T11:14:05.744Z,45.17
2017-02-04T11:15:05.769Z,44.89
2017-02-04T11:16:05.654Z,45.07
2017-02-04T11:17:05.823Z,45.17
2017-02-04T11:18:05.458Z,44.59
2017-02-04T11:19:05.872Z,45.56
2017-02-04T11:20:05.904Z,46.14
2017-02-04T11:21:05.837Z,46.33
2017-02-04T11:22:05.958Z,46.33
2017-02-04T11:23:05.979Z,46.23
2017-02-04T11:24:06.011Z,46.33
2017-02-04T11:25:06.039Z,46.62
2017-02-04T11:26:05.924Z,46.69
2017-02-04T11:27:06.099Z,46.42
2017-02-04T11:28:05.723Z,46.31
2017-02-04T11:29:06.152Z,46.52
2017-02-04T11:30:06.172Z,46.91
2017-02-04T11:31:06.453Z,47.1
2017-02-04T11:32:06.221Z,47.49
2017-02-04T11:33:06.255Z,47.49
2017-02-04T11:34:06.279Z,47.1
2017-02-04T11:35:05.914Z,47.29
2017-02-04T11:36:06.241Z,47.46
2017-02-04T11:37:05.965Z,47.97
2017-02-04T11:38:06.388Z,47.97
2017-02-04T11:39:06.419Z,47.56
2017-02-04T11:40:06.049Z,48.13
2017-02-04T11:41:06.368Z,48.03
2017-02-04T11:42:06.101Z,48.54
2017-02-04T11:43:06.130Z,48.61
2017-02-04T11:44:06.151Z,48.43
2017-02-04T11:45:06.182Z,48.54
2017-02-04T11:46:06.509Z,48.52
2017-02-04T11:47:06.645Z,48.43
2017-02-04T11:48:06.258Z,48.81
2017-02-04T11:49:06.682Z,48.71
2017-02-04T11:50:06.709Z,48.81
2017-02-04T11:51:06.341Z,48.52
2017-02-04T11:52:06.364Z,48.61
2017-02-04T11:53:06.394Z,49
2017-02-04T11:54:06.426Z,48.61
2017-02-04T11:55:06.447Z,48.71
2017-02-04T11:56:06.869Z,48.52
2017-02-04T11:57:06.893Z,49.1
2017-02-04T11:58:06.530Z,48.61
2017-02-04T11:59:06.950Z,49.1
2017-02-04T12:00:06.982Z,49.1
2017-02-04T12:01:06.603Z,49.19
2017-02-04T12:02:06.932Z,48.9
2017-02-04T12:03:07.053Z,49.1
2017-02-04T12:04:06.690Z,49
2017-02-04T12:05:07.111Z,49.19
2017-02-04T12:06:07.137Z,49
2017-02-04T12:07:07.763Z,49.29
2017-02-04T12:08:06.798Z,49.29
2017-02-04T12:09:07.219Z,49.1
2017-02-04T12:10:07.247Z,48.9
2017-02-04T12:11:07.277Z,49
2017-02-04T12:12:07.606Z,49.1
2017-02-04T12:13:06.957Z,49.58
2017-02-04T12:14:06.958Z,49.38
2017-02-04T12:15:06.982Z,49.19
2017-02-04T12:16:07.407Z,49.38
2017-02-04T12:17:07.432Z,49.58
2017-02-04T12:18:07.064Z,49.68
2017-02-04T12:19:07.490Z,49.48
2017-02-04T12:20:07.517Z,49.38
2017-02-04T12:21:07.543Z,49.19
2017-02-04T12:22:07.568Z,49.1
2017-02-04T12:23:07.595Z,49.58
2017-02-04T12:24:07.629Z,49.48
2017-02-04T12:25:07.250Z,49.68
2017-02-04T12:26:07.280Z,49.58
2017-02-04T12:27:07.704Z,49.38
2017-02-04T12:28:07.327Z,49.58
2017-02-04T12:29:07.757Z,49.38
2017-02-04T12:30:07.782Z,50.06
2017-02-04T12:31:07.439Z,49.87
2017-02-04T12:32:07.835Z,49.87
2017-02-04T12:33:08.169Z,49.77
2017-02-04T12:34:07.492Z,49.96
2017-02-04T12:35:07.522Z,49.96
2017-02-04T12:36:07.549Z,49.77
2017-02-04T12:37:07.575Z,49.77
2017-02-04T12:38:08.297Z,49.77
2017-02-04T12:39:08.024Z,49.89
2017-02-04T12:40:08.053Z,49.7
2017-02-04T12:41:07.680Z,49.77
2017-02-04T12:42:07.707Z,49.51
2017-02-04T12:43:08.433Z,49.58
2017-02-04T12:44:07.756Z,49.87
2017-02-04T12:45:08.193Z,49.87
2017-02-04T12:46:07.818Z,49.77
2017-02-04T12:47:08.235Z,49.87
2017-02-04T12:48:08.567Z,49.87
2017-02-04T12:49:08.287Z,49.87
2017-02-04T12:50:08.317Z,49.89
2017-02-04T12:51:07.950Z,49.89
2017-02-04T12:52:08.378Z,49.87
2017-02-04T12:53:08.707Z,50.06
2017-02-04T12:54:08.445Z,49.96
2017-02-04T12:55:08.453Z,49.87
2017-02-04T12:56:08.494Z,49.77
2017-02-04T12:57:08.106Z,49.89